sensor_id;sensor_type;location;lat;lon;timestamp;temperature;humidity
7196;DHT22;3639;51.308;5.624;2023-12-14T00:01:59;8.50;99.90
7196;DHT22;3639;51.308;5.624;2023-12-14T00:04:25;8.50;99.90
7196;DHT22;3639;51.308;5.624;2023-12-14T00:06:50;8.50;99.90
7196;DHT22;3639;51.308;5.624;2023-12-14T00:09:16;8.40;99.90
7196;DHT22;3639;51.308;5.624;2023-12-14T00:11:42;8.40;99.90
7196;DHT22;3639;51.308;5.624;2023-12-14T00:14:07;8.40;99.90
7196;DHT22;3639;51.308;5.624;2023-12-14T00:16:33;8.40;99.90
7196;DHT22;3639;51.308;5.624;2023-12-14T00:18:58;8.40;99.90
7196;DHT22;3639;51.308;5.624;2023-12-14T00:21:24;8.40;99.90
7196;DHT22;3639;51.308;5.624;2023-12-14T00:23:49;8.40;99.90
7196;DHT22;3639;51.308;5.624;2023-12-14T00:26:15;8.40;99.90
7196;DHT22;3639;51.308;5.624;2023-12-14T00:28:42;8.40;99.90
7196;DHT22;3639;51.308;5.624;2023-12-14T00:31:08;8.40;99.90
7196;DHT22;3639;51.308;5.624;2023-12-14T00:33:33;8.30;99.90
7196;DHT22;3639;51.308;5.624;2023-12-14T00:35:59;8.40;99.90
7196;DHT22;3639;51.308;5.624;2023-12-14T00:38:24;8.30;99.90
7196;DHT22;3639;51.308;5.624;2023-12-14T00:40:50;8.30;99.90
7196;DHT22;3639;51.308;5.624;2023-12-14T00:43:15;8.30;99.90
7196;DHT22;3639;51.308;5.624;2023-12-14T00:45:41;8.20;99.90
7196;DHT22;3639;51.308;5.624;2023-12-14T00:48:07;8.10;99.90
7196;DHT22;3639;51.308;5.624;2023-12-14T00:50:32;8.10;99.90
7196;DHT22;3639;51.308;5.624;2023-12-14T00:52:58;8.00;99.90
7196;DHT22;3639;51.308;5.624;2023-12-14T00:55:24;8.00;99.90
7196;DHT22;3639;51.308;5.624;2023-12-14T00:57:49;8.00;99.90
7196;DHT22;3639;51.308;5.624;2023-12-14T01:00:15;7.90;99.90
7196;DHT22;3639;51.308;5.624;2023-12-14T01:02:41;7.90;99.90
7196;DHT22;3639;51.308;5.624;2023-12-14T01:05:06;7.90;99.90
7196;DHT22;3639;51.308;5.624;2023-12-14T01:07:32;7.80;99.90
7196;DHT22;3639;51.308;5.624;2023-12-14T01:09:58;7.70;99.90
7196;DHT22;3639;51.308;5.624;2023-12-14T01:12:23;7.70;99.90
7196;DHT22;3639;51.308;5.624;2023-12-14T01:14:49;7.70;99.90
7196;DHT22;3639;51.308;5.624;2023-12-14T01:17:14;7.60;99.90
7196;DHT22;3639;51.308;5.624;2023-12-14T01:19:40;7.60;99.90
7196;DHT22;3639;51.308;5.624;2023-12-14T01:22:09;7.60;99.90
7196;DHT22;3639;51.308;5.624;2023-12-14T01:24:34;7.50;99.90
7196;DHT22;3639;51.308;5.624;2023-12-14T01:27:00;7.60;99.90
7196;DHT22;3639;51.308;5.624;2023-12-14T01:29:25;7.50;99.90
7196;DHT22;3639;51.308;5.624;2023-12-14T01:31:51;7.40;99.90
7196;DHT22;3639;51.308;5.624;2023-12-14T01:34:16;7.40;99.90
7196;DHT22;3639;51.308;5.624;2023-12-14T01:36:42;7.40;99.90
7196;DHT22;3639;51.308;5.624;2023-12-14T01:39:08;7.40;99.90
7196;DHT22;3639;51.308;5.624;2023-12-14T01:41:33;7.40;99.90
7196;DHT22;3639;51.308;5.624;2023-12-14T01:43:59;7.50;99.90
7196;DHT22;3639;51.308;5.624;2023-12-14T01:46:24;7.40;99.90
7196;DHT22;3639;51.308;5.624;2023-12-14T01:48:50;7.40;99.90
7196;DHT22;3639;51.308;5.624;2023-12-14T01:51:17;7.40;99.90
7196;DHT22;3639;51.308;5.624;2023-12-14T01:53:43;7.30;99.90
7196;DHT22;3639;51.308;5.624;2023-12-14T01:56:08;7.30;99.90
7196;DHT22;3639;51.308;5.624;2023-12-14T01:58:34;7.20;99.90
7196;DHT22;3639;51.308;5.624;2023-12-14T02:02:01;7.20;99.90
7196;DHT22;3639;51.308;5.624;2023-12-14T02:04:08;7.20;99.90
7196;DHT22;3639;51.308;5.624;2023-12-14T02:06:35;7.20;99.90
7196;DHT22;3639;51.308;5.624;2023-12-14T02:09:00;7.20;99.90
7196;DHT22;3639;51.308;5.624;2023-12-14T02:11:26;7.10;99.90
7196;DHT22;3639;51.308;5.624;2023-12-14T02:13:52;7.10;99.90
7196;DHT22;3639;51.308;5.624;2023-12-14T02:16:17;7.20;99.90
7196;DHT22;3639;51.308;5.624;2023-12-14T02:18:43;7.20;99.90
7196;DHT22;3639;51.308;5.624;2023-12-14T02:21:09;7.10;99.90
7196;DHT22;3639;51.308;5.624;2023-12-14T02:23:35;7.10;99.90
7196;DHT22;3639;51.308;5.624;2023-12-14T02:26:01;7.00;99.90
7196;DHT22;3639;51.308;5.624;2023-12-14T02:28:26;7.00;99.90
7196;DHT22;3639;51.308;5.624;2023-12-14T02:30:52;7.00;99.90
7196;DHT22;3639;51.308;5.624;2023-12-14T02:33:17;7.00;99.90
7196;DHT22;3639;51.308;5.624;2023-12-14T02:35:43;7.10;99.90
7196;DHT22;3639;51.308;5.624;2023-12-14T02:38:09;7.00;99.90
7196;DHT22;3639;51.308;5.624;2023-12-14T02:40:35;7.10;99.90
7196;DHT22;3639;51.308;5.624;2023-12-14T02:43:01;7.10;99.90
7196;DHT22;3639;51.308;5.624;2023-12-14T02:45:26;7.00;99.90
7196;DHT22;3639;51.308;5.624;2023-12-14T02:47:53;7.00;99.90
7196;DHT22;3639;51.308;5.624;2023-12-14T02:50:19;7.00;99.90
7196;DHT22;3639;51.308;5.624;2023-12-14T02:52:45;7.00;99.90
7196;DHT22;3639;51.308;5.624;2023-12-14T02:55:10;7.00;99.90
7196;DHT22;3639;51.308;5.624;2023-12-14T02:57:36;7.00;99.90
7196;DHT22;3639;51.308;5.624;2023-12-14T03:00:02;6.90;99.90
7196;DHT22;3639;51.308;5.624;2023-12-14T03:02:27;7.00;99.90
7196;DHT22;3639;51.308;5.624;2023-12-14T03:04:53;7.00;99.90
7196;DHT22;3639;51.308;5.624;2023-12-14T03:07:19;6.90;99.90
7196;DHT22;3639;51.308;5.624;2023-12-14T03:09:44;6.90;99.90
7196;DHT22;3639;51.308;5.624;2023-12-14T03:12:10;6.90;99.90
7196;DHT22;3639;51.308;5.624;2023-12-14T03:14:36;7.00;99.90
7196;DHT22;3639;51.308;5.624;2023-12-14T03:17:02;6.90;99.90
7196;DHT22;3639;51.308;5.624;2023-12-14T03:19:28;6.90;99.90
7196;DHT22;3639;51.308;5.624;2023-12-14T03:21:54;6.90;99.90
7196;DHT22;3639;51.308;5.624;2023-12-14T03:24:20;6.90;99.90
7196;DHT22;3639;51.308;5.624;2023-12-14T03:26:46;6.80;99.90
7196;DHT22;3639;51.308;5.624;2023-12-14T03:29:11;6.80;99.90
7196;DHT22;3639;51.308;5.624;2023-12-14T03:31:37;6.80;99.90
7196;DHT22;3639;51.308;5.624;2023-12-14T03:34:02;6.80;99.90
7196;DHT22;3639;51.308;5.624;2023-12-14T03:36:28;6.80;99.90
7196;DHT22;3639;51.308;5.624;2023-12-14T03:38:54;6.80;99.90
7196;DHT22;3639;51.308;5.624;2023-12-14T03:41:20;6.70;99.90
7196;DHT22;3639;51.308;5.624;2023-12-14T03:43:45;6.70;99.90
7196;DHT22;3639;51.308;5.624;2023-12-14T03:46:11;6.70;99.90
7196;DHT22;3639;51.308;5.624;2023-12-14T03:48:37;6.70;99.90
7196;DHT22;3639;51.308;5.624;2023-12-14T03:51:03;6.70;99.90
7196;DHT22;3639;51.308;5.624;2023-12-14T03:53:29;6.60;99.90
7196;DHT22;3639;51.308;5.624;2023-12-14T03:55:55;6.60;99.90
7196;DHT22;3639;51.308;5.624;2023-12-14T03:58:21;6.70;99.90
7196;DHT22;3639;51.308;5.624;2023-12-14T04:00:46;6.70;99.90
7196;DHT22;3639;51.308;5.624;2023-12-14T04:03:12;6.60;99.90
7196;DHT22;3639;51.308;5.624;2023-12-14T04:05:38;6.60;99.90
7196;DHT22;3639;51.308;5.624;2023-12-14T04:08:04;6.60;99.90
7196;DHT22;3639;51.308;5.624;2023-12-14T04:10:30;6.60;99.90
7196;DHT22;3639;51.308;5.624;2023-12-14T04:12:56;6.60;99.90
7196;DHT22;3639;51.308;5.624;2023-12-14T04:15:21;6.60;99.90
7196;DHT22;3639;51.308;5.624;2023-12-14T04:17:47;6.50;99.90
7196;DHT22;3639;51.308;5.624;2023-12-14T04:20:13;6.50;99.90
7196;DHT22;3639;51.308;5.624;2023-12-14T04:22:41;6.40;99.90
7196;DHT22;3639;51.308;5.624;2023-12-14T04:25:07;6.40;99.90
7196;DHT22;3639;51.308;5.624;2023-12-14T04:27:33;6.40;99.90
7196;DHT22;3639;51.308;5.624;2023-12-14T04:29:58;6.30;99.90
7196;DHT22;3639;51.308;5.624;2023-12-14T04:32:24;6.20;99.90
7196;DHT22;3639;51.308;5.624;2023-12-14T04:34:49;6.20;99.90
7196;DHT22;3639;51.308;5.624;2023-12-14T04:37:15;6.30;99.90
7196;DHT22;3639;51.308;5.624;2023-12-14T04:39:40;6.30;99.90
7196;DHT22;3639;51.308;5.624;2023-12-14T04:42:06;6.20;99.90
7196;DHT22;3639;51.308;5.624;2023-12-14T04:44:32;6.20;99.90
7196;DHT22;3639;51.308;5.624;2023-12-14T04:46:57;6.30;99.90
7196;DHT22;3639;51.308;5.624;2023-12-14T04:49:23;6.20;99.90
7196;DHT22;3639;51.308;5.624;2023-12-14T04:51:48;6.30;99.90
7196;DHT22;3639;51.308;5.624;2023-12-14T04:54:14;6.30;99.90
7196;DHT22;3639;51.308;5.624;2023-12-14T04:56:40;6.30;99.90
7196;DHT22;3639;51.308;5.624;2023-12-14T04:59:07;6.30;99.90
7196;DHT22;3639;51.308;5.624;2023-12-14T05:01:33;6.30;99.90
7196;DHT22;3639;51.308;5.624;2023-12-14T05:03:58;6.30;99.90
7196;DHT22;3639;51.308;5.624;2023-12-14T05:06:24;6.30;99.90
7196;DHT22;3639;51.308;5.624;2023-12-14T05:08:52;6.30;99.90
7196;DHT22;3639;51.308;5.624;2023-12-14T05:11:18;6.40;99.90
7196;DHT22;3639;51.308;5.624;2023-12-14T05:13:43;6.40;99.90
7196;DHT22;3639;51.308;5.624;2023-12-14T05:16:16;6.40;99.90
7196;DHT22;3639;51.308;5.624;2023-12-14T05:18:41;6.40;99.90
7196;DHT22;3639;51.308;5.624;2023-12-14T05:21:07;6.40;99.90
7196;DHT22;3639;51.308;5.624;2023-12-14T05:23:32;6.40;99.90
7196;DHT22;3639;51.308;5.624;2023-12-14T05:25:58;6.40;99.90
7196;DHT22;3639;51.308;5.624;2023-12-14T05:28:24;6.30;99.90
7196;DHT22;3639;51.308;5.624;2023-12-14T05:30:49;6.30;99.90
7196;DHT22;3639;51.308;5.624;2023-12-14T05:33:15;6.30;99.90
7196;DHT22;3639;51.308;5.624;2023-12-14T05:35:40;6.30;99.90
7196;DHT22;3639;51.308;5.624;2023-12-14T05:38:06;6.30;99.90
7196;DHT22;3639;51.308;5.624;2023-12-14T05:40:31;6.30;99.90
7196;DHT22;3639;51.308;5.624;2023-12-14T05:42:57;6.30;99.90
7196;DHT22;3639;51.308;5.624;2023-12-14T05:45:24;6.30;99.90
7196;DHT22;3639;51.308;5.624;2023-12-14T05:47:50;6.20;99.90
7196;DHT22;3639;51.308;5.624;2023-12-14T05:50:16;6.20;99.90
7196;DHT22;3639;51.308;5.624;2023-12-14T05:52:42;6.20;99.90
7196;DHT22;3639;51.308;5.624;2023-12-14T05:55:08;6.30;99.90
7196;DHT22;3639;51.308;5.624;2023-12-14T05:57:37;6.30;99.90
7196;DHT22;3639;51.308;5.624;2023-12-14T06:00:05;6.30;99.90
7196;DHT22;3639;51.308;5.624;2023-12-14T06:02:31;6.30;99.90
7196;DHT22;3639;51.308;5.624;2023-12-14T06:04:57;6.30;99.90
7196;DHT22;3639;51.308;5.624;2023-12-14T06:07:23;6.20;99.90
7196;DHT22;3639;51.308;5.624;2023-12-14T06:09:49;6.30;99.90
7196;DHT22;3639;51.308;5.624;2023-12-14T06:12:14;6.30;99.90
7196;DHT22;3639;51.308;5.624;2023-12-14T06:14:40;6.20;99.90
7196;DHT22;3639;51.308;5.624;2023-12-14T06:17:06;6.20;99.90
7196;DHT22;3639;51.308;5.624;2023-12-14T06:19:31;6.30;99.90
7196;DHT22;3639;51.308;5.624;2023-12-14T06:21:57;6.30;99.90
7196;DHT22;3639;51.308;5.624;2023-12-14T06:24:23;6.30;99.90
7196;DHT22;3639;51.308;5.624;2023-12-14T06:26:49;6.20;99.90
7196;DHT22;3639;51.308;5.624;2023-12-14T06:29:14;6.20;99.90
7196;DHT22;3639;51.308;5.624;2023-12-14T06:31:40;6.20;99.90
7196;DHT22;3639;51.308;5.624;2023-12-14T06:34:06;6.20;99.90
7196;DHT22;3639;51.308;5.624;2023-12-14T06:36:33;6.20;99.90
7196;DHT22;3639;51.308;5.624;2023-12-14T06:38:59;6.20;99.90
7196;DHT22;3639;51.308;5.624;2023-12-14T06:41:26;6.20;99.90
7196;DHT22;3639;51.308;5.624;2023-12-14T06:43:52;6.20;99.90
7196;DHT22;3639;51.308;5.624;2023-12-14T06:46:18;6.20;99.90
7196;DHT22;3639;51.308;5.624;2023-12-14T06:48:45;6.20;99.90
7196;DHT22;3639;51.308;5.624;2023-12-14T06:51:11;6.20;99.90
7196;DHT22;3639;51.308;5.624;2023-12-14T06:53:40;6.10;99.90
7196;DHT22;3639;51.308;5.624;2023-12-14T06:56:07;6.20;99.90
7196;DHT22;3639;51.308;5.624;2023-12-14T06:58:43;6.10;99.90
7196;DHT22;3639;51.308;5.624;2023-12-14T07:01:16;6.10;99.90
7196;DHT22;3639;51.308;5.624;2023-12-14T07:03:43;6.10;99.90
7196;DHT22;3639;51.308;5.624;2023-12-14T07:06:17;6.10;99.90
7196;DHT22;3639;51.308;5.624;2023-12-14T07:08:43;6.10;99.90
7196;DHT22;3639;51.308;5.624;2023-12-14T07:11:10;6.10;99.90
7196;DHT22;3639;51.308;5.624;2023-12-14T07:13:36;6.10;99.90
7196;DHT22;3639;51.308;5.624;2023-12-14T07:16:09;6.10;99.90
7196;DHT22;3639;51.308;5.624;2023-12-14T07:18:36;6.10;99.90
7196;DHT22;3639;51.308;5.624;2023-12-14T07:21:03;6.10;99.90
7196;DHT22;3639;51.308;5.624;2023-12-14T07:23:28;6.20;99.90
7196;DHT22;3639;51.308;5.624;2023-12-14T07:25:54;6.20;99.90
7196;DHT22;3639;51.308;5.624;2023-12-14T07:28:20;6.20;99.90
7196;DHT22;3639;51.308;5.624;2023-12-14T07:30:46;6.20;99.90
7196;DHT22;3639;51.308;5.624;2023-12-14T07:33:12;6.30;99.90
7196;DHT22;3639;51.308;5.624;2023-12-14T07:35:38;6.20;99.90
7196;DHT22;3639;51.308;5.624;2023-12-14T07:38:03;6.20;99.90
7196;DHT22;3639;51.308;5.624;2023-12-14T07:40:29;6.20;99.90
7196;DHT22;3639;51.308;5.624;2023-12-14T07:42:54;6.20;99.90
7196;DHT22;3639;51.308;5.624;2023-12-14T07:45:20;6.30;99.90
7196;DHT22;3639;51.308;5.624;2023-12-14T07:47:45;6.30;99.90
7196;DHT22;3639;51.308;5.624;2023-12-14T07:50:12;6.30;99.90
7196;DHT22;3639;51.308;5.624;2023-12-14T07:52:39;6.30;99.90
7196;DHT22;3639;51.308;5.624;2023-12-14T07:55:05;6.30;99.90
7196;DHT22;3639;51.308;5.624;2023-12-14T07:57:31;6.20;99.90
7196;DHT22;3639;51.308;5.624;2023-12-14T07:59:56;6.20;99.90
7196;DHT22;3639;51.308;5.624;2023-12-14T08:02:22;6.30;99.90
7196;DHT22;3639;51.308;5.624;2023-12-14T08:04:48;6.20;99.90
7196;DHT22;3639;51.308;5.624;2023-12-14T08:07:14;6.30;99.90
7196;DHT22;3639;51.308;5.624;2023-12-14T08:09:39;6.20;99.90
7196;DHT22;3639;51.308;5.624;2023-12-14T08:12:05;6.30;99.90
7196;DHT22;3639;51.308;5.624;2023-12-14T08:14:32;6.20;99.90
7196;DHT22;3639;51.308;5.624;2023-12-14T08:16:59;6.20;99.90
7196;DHT22;3639;51.308;5.624;2023-12-14T08:19:25;6.30;99.90
7196;DHT22;3639;51.308;5.624;2023-12-14T08:21:50;6.30;99.90
7196;DHT22;3639;51.308;5.624;2023-12-14T08:24:16;6.30;99.90
7196;DHT22;3639;51.308;5.624;2023-12-14T08:26:41;6.20;99.90
7196;DHT22;3639;51.308;5.624;2023-12-14T08:29:07;6.20;99.90
7196;DHT22;3639;51.308;5.624;2023-12-14T08:31:32;6.20;99.90
7196;DHT22;3639;51.308;5.624;2023-12-14T08:33:58;6.20;99.90
7196;DHT22;3639;51.308;5.624;2023-12-14T08:36:23;6.10;99.90
7196;DHT22;3639;51.308;5.624;2023-12-14T08:38:49;6.10;99.90
7196;DHT22;3639;51.308;5.624;2023-12-14T08:41:15;6.10;99.90
7196;DHT22;3639;51.308;5.624;2023-12-14T08:43:41;6.00;99.90
7196;DHT22;3639;51.308;5.624;2023-12-14T08:46:09;6.00;99.90
7196;DHT22;3639;51.308;5.624;2023-12-14T08:48:35;6.00;99.90
7196;DHT22;3639;51.308;5.624;2023-12-14T08:51:01;6.00;99.90
7196;DHT22;3639;51.308;5.624;2023-12-14T08:53:27;6.00;99.90
7196;DHT22;3639;51.308;5.624;2023-12-14T08:55:53;6.00;99.90
7196;DHT22;3639;51.308;5.624;2023-12-14T08:58:19;6.00;99.90
7196;DHT22;3639;51.308;5.624;2023-12-14T09:00:45;6.00;99.90
7196;DHT22;3639;51.308;5.624;2023-12-14T09:03:10;6.00;99.90
7196;DHT22;3639;51.308;5.624;2023-12-14T09:05:36;6.00;99.90
7196;DHT22;3639;51.308;5.624;2023-12-14T09:08:02;6.00;99.90
7196;DHT22;3639;51.308;5.624;2023-12-14T09:10:28;6.00;99.90
7196;DHT22;3639;51.308;5.624;2023-12-14T09:12:53;6.00;99.90
7196;DHT22;3639;51.308;5.624;2023-12-14T09:15:19;6.00;99.90
7196;DHT22;3639;51.308;5.624;2023-12-14T09:17:45;6.00;99.90
7196;DHT22;3639;51.308;5.624;2023-12-14T09:20:11;6.00;99.90
7196;DHT22;3639;51.308;5.624;2023-12-14T09:22:37;6.00;99.90
7196;DHT22;3639;51.308;5.624;2023-12-14T09:25:02;5.90;99.90
7196;DHT22;3639;51.308;5.624;2023-12-14T09:27:29;5.90;99.90
7196;DHT22;3639;51.308;5.624;2023-12-14T09:29:55;5.90;99.90
7196;DHT22;3639;51.308;5.624;2023-12-14T09:32:20;5.90;99.90
7196;DHT22;3639;51.308;5.624;2023-12-14T09:34:46;5.90;99.90
7196;DHT22;3639;51.308;5.624;2023-12-14T09:37:12;5.90;99.90
7196;DHT22;3639;51.308;5.624;2023-12-14T09:39:39;5.90;99.90
7196;DHT22;3639;51.308;5.624;2023-12-14T09:42:06;5.90;99.90
7196;DHT22;3639;51.308;5.624;2023-12-14T09:44:33;6.00;99.90
7196;DHT22;3639;51.308;5.624;2023-12-14T09:47:00;6.00;99.90
7196;DHT22;3639;51.308;5.624;2023-12-14T09:49:32;6.00;99.90
7196;DHT22;3639;51.308;5.624;2023-12-14T09:51:58;6.00;99.90
7196;DHT22;3639;51.308;5.624;2023-12-14T09:54:26;6.00;99.90
7196;DHT22;3639;51.308;5.624;2023-12-14T09:56:52;6.00;99.90
7196;DHT22;3639;51.308;5.624;2023-12-14T09:59:18;6.00;99.90
7196;DHT22;3639;51.308;5.624;2023-12-14T10:01:44;6.00;99.90
7196;DHT22;3639;51.308;5.624;2023-12-14T10:04:19;6.00;99.90
7196;DHT22;3639;51.308;5.624;2023-12-14T10:06:47;6.00;99.90
7196;DHT22;3639;51.308;5.624;2023-12-14T10:09:13;6.00;99.90
7196;DHT22;3639;51.308;5.624;2023-12-14T10:11:41;6.00;99.90
7196;DHT22;3639;51.308;5.624;2023-12-14T10:14:24;6.00;99.90
7196;DHT22;3639;51.308;5.624;2023-12-14T10:16:53;6.10;99.90
7196;DHT22;3639;51.308;5.624;2023-12-14T10:19:19;6.10;99.90
7196;DHT22;3639;51.308;5.624;2023-12-14T10:21:49;6.20;99.90
7196;DHT22;3639;51.308;5.624;2023-12-14T10:24:16;6.20;99.90
7196;DHT22;3639;51.308;5.624;2023-12-14T10:26:44;6.20;99.90
7196;DHT22;3639;51.308;5.624;2023-12-14T10:29:10;6.20;99.90
7196;DHT22;3639;51.308;5.624;2023-12-14T10:31:36;6.20;99.90
7196;DHT22;3639;51.308;5.624;2023-12-14T10:34:05;6.20;99.90
7196;DHT22;3639;51.308;5.624;2023-12-14T10:36:31;6.20;99.90
7196;DHT22;3639;51.308;5.624;2023-12-14T10:38:59;6.30;99.90
7196;DHT22;3639;51.308;5.624;2023-12-14T10:41:25;6.30;99.90
7196;DHT22;3639;51.308;5.624;2023-12-14T10:43:56;6.30;99.90
7196;DHT22;3639;51.308;5.624;2023-12-14T10:46:23;6.30;99.90
7196;DHT22;3639;51.308;5.624;2023-12-14T10:48:50;6.30;99.90
7196;DHT22;3639;51.308;5.624;2023-12-14T10:51:18;6.40;99.90
7196;DHT22;3639;51.308;5.624;2023-12-14T10:53:45;6.40;99.90
7196;DHT22;3639;51.308;5.624;2023-12-14T10:56:16;6.40;99.90
7196;DHT22;3639;51.308;5.624;2023-12-14T11:01:18;6.40;99.90
7196;DHT22;3639;51.308;5.624;2023-12-14T11:03:44;6.40;99.90
7196;DHT22;3639;51.308;5.624;2023-12-14T11:06:32;6.50;99.90
7196;DHT22;3639;51.308;5.624;2023-12-14T11:09:00;6.60;99.90
7196;DHT22;3639;51.308;5.624;2023-12-14T11:11:29;6.70;99.90
7196;DHT22;3639;51.308;5.624;2023-12-14T11:13:55;6.80;99.90
7196;DHT22;3639;51.308;5.624;2023-12-14T11:16:22;6.90;99.90
7196;DHT22;3639;51.308;5.624;2023-12-14T11:18:48;6.90;99.90
7196;DHT22;3639;51.308;5.624;2023-12-14T11:21:34;6.90;99.90
7196;DHT22;3639;51.308;5.624;2023-12-14T11:24:01;6.90;99.90
7196;DHT22;3639;51.308;5.624;2023-12-14T11:26:26;6.90;99.90
7196;DHT22;3639;51.308;5.624;2023-12-14T11:28:54;6.80;99.90
7196;DHT22;3639;51.308;5.624;2023-12-14T11:31:19;6.80;99.90
7196;DHT22;3639;51.308;5.624;2023-12-14T11:33:46;6.80;99.90
7196;DHT22;3639;51.308;5.624;2023-12-14T11:36:13;6.80;99.90
7196;DHT22;3639;51.308;5.624;2023-12-14T11:38:38;6.80;99.90
7196;DHT22;3639;51.308;5.624;2023-12-14T11:41:04;6.80;99.90
7196;DHT22;3639;51.308;5.624;2023-12-14T11:43:37;6.80;99.90
7196;DHT22;3639;51.308;5.624;2023-12-14T11:46:03;6.80;99.90
7196;DHT22;3639;51.308;5.624;2023-12-14T11:48:29;6.80;99.90
7196;DHT22;3639;51.308;5.624;2023-12-14T11:50:54;6.80;99.90
7196;DHT22;3639;51.308;5.624;2023-12-14T11:53:20;6.70;99.90
7196;DHT22;3639;51.308;5.624;2023-12-14T11:55:46;6.70;99.90
7196;DHT22;3639;51.308;5.624;2023-12-14T11:58:12;6.70;99.90
7196;DHT22;3639;51.308;5.624;2023-12-14T12:00:42;6.80;99.90
7196;DHT22;3639;51.308;5.624;2023-12-14T12:03:16;6.70;99.90
7196;DHT22;3639;51.308;5.624;2023-12-14T12:05:44;6.70;99.90
7196;DHT22;3639;51.308;5.624;2023-12-14T12:08:12;6.70;99.90
7196;DHT22;3639;51.308;5.624;2023-12-14T12:10:38;6.70;99.90
7196;DHT22;3639;51.308;5.624;2023-12-14T12:13:08;6.70;99.90
7196;DHT22;3639;51.308;5.624;2023-12-14T12:15:36;6.70;99.90
7196;DHT22;3639;51.308;5.624;2023-12-14T12:18:09;6.70;99.90
7196;DHT22;3639;51.308;5.624;2023-12-14T12:20:36;6.80;99.90
7196;DHT22;3639;51.308;5.624;2023-12-14T12:23:02;6.90;99.90
7196;DHT22;3639;51.308;5.624;2023-12-14T12:25:29;7.00;99.90
7196;DHT22;3639;51.308;5.624;2023-12-14T12:27:55;7.00;99.90
7196;DHT22;3639;51.308;5.624;2023-12-14T12:30:22;7.00;99.90
7196;DHT22;3639;51.308;5.624;2023-12-14T12:32:48;7.00;99.90
7196;DHT22;3639;51.308;5.624;2023-12-14T12:35:15;7.00;99.90
7196;DHT22;3639;51.308;5.624;2023-12-14T12:37:41;6.90;99.90
7196;DHT22;3639;51.308;5.624;2023-12-14T12:40:06;6.80;99.90
7196;DHT22;3639;51.308;5.624;2023-12-14T12:42:33;6.70;99.90
7196;DHT22;3639;51.308;5.624;2023-12-14T12:44:59;6.70;99.90
7196;DHT22;3639;51.308;5.624;2023-12-14T12:47:24;6.60;99.90
7196;DHT22;3639;51.308;5.624;2023-12-14T12:49:50;6.50;99.90
7196;DHT22;3639;51.308;5.624;2023-12-14T12:52:15;6.50;99.90
7196;DHT22;3639;51.308;5.624;2023-12-14T12:54:41;6.60;99.90
7196;DHT22;3639;51.308;5.624;2023-12-14T12:57:06;6.60;99.90
7196;DHT22;3639;51.308;5.624;2023-12-14T12:59:32;6.70;99.90
7196;DHT22;3639;51.308;5.624;2023-12-14T13:01:59;6.70;99.90
7196;DHT22;3639;51.308;5.624;2023-12-14T13:04:24;6.70;99.90
7196;DHT22;3639;51.308;5.624;2023-12-14T13:06:52;6.70;99.90
7196;DHT22;3639;51.308;5.624;2023-12-14T13:09:18;6.60;99.90
7196;DHT22;3639;51.308;5.624;2023-12-14T13:11:45;6.60;99.90
7196;DHT22;3639;51.308;5.624;2023-12-14T13:14:11;6.60;99.90
7196;DHT22;3639;51.308;5.624;2023-12-14T13:16:38;6.50;99.90
7196;DHT22;3639;51.308;5.624;2023-12-14T13:19:04;6.50;99.90
7196;DHT22;3639;51.308;5.624;2023-12-14T13:21:35;6.50;99.90
7196;DHT22;3639;51.308;5.624;2023-12-14T13:24:01;6.50;99.90
7196;DHT22;3639;51.308;5.624;2023-12-14T13:26:27;6.50;99.90
7196;DHT22;3639;51.308;5.624;2023-12-14T13:28:52;6.50;99.90
7196;DHT22;3639;51.308;5.624;2023-12-14T13:31:18;6.50;99.90
7196;DHT22;3639;51.308;5.624;2023-12-14T13:33:46;6.50;99.90
7196;DHT22;3639;51.308;5.624;2023-12-14T13:36:12;6.50;99.90
7196;DHT22;3639;51.308;5.624;2023-12-14T13:38:37;6.60;99.90
7196;DHT22;3639;51.308;5.624;2023-12-14T13:41:03;6.50;99.90
7196;DHT22;3639;51.308;5.624;2023-12-14T13:43:29;6.60;99.90
7196;DHT22;3639;51.308;5.624;2023-12-14T13:45:55;6.50;99.90
7196;DHT22;3639;51.308;5.624;2023-12-14T13:48:24;6.50;99.90
7196;DHT22;3639;51.308;5.624;2023-12-14T13:50:50;6.50;99.90
7196;DHT22;3639;51.308;5.624;2023-12-14T13:53:18;6.50;99.90
7196;DHT22;3639;51.308;5.624;2023-12-14T13:55:45;6.50;99.90
7196;DHT22;3639;51.308;5.624;2023-12-14T13:58:11;6.50;99.90
7196;DHT22;3639;51.308;5.624;2023-12-14T14:00:37;6.50;99.90
7196;DHT22;3639;51.308;5.624;2023-12-14T14:03:03;6.40;99.90
7196;DHT22;3639;51.308;5.624;2023-12-14T14:05:30;6.50;99.90
7196;DHT22;3639;51.308;5.624;2023-12-14T14:07:56;6.50;99.90
7196;DHT22;3639;51.308;5.624;2023-12-14T14:10:22;6.50;99.90
7196;DHT22;3639;51.308;5.624;2023-12-14T14:12:47;6.50;99.90
7196;DHT22;3639;51.308;5.624;2023-12-14T14:15:13;6.60;99.90
7196;DHT22;3639;51.308;5.624;2023-12-14T14:17:39;6.60;99.90
7196;DHT22;3639;51.308;5.624;2023-12-14T14:20:05;6.60;99.90
7196;DHT22;3639;51.308;5.624;2023-12-14T14:22:32;6.50;99.90
7196;DHT22;3639;51.308;5.624;2023-12-14T14:24:58;6.50;99.90
7196;DHT22;3639;51.308;5.624;2023-12-14T14:27:23;6.50;99.90
7196;DHT22;3639;51.308;5.624;2023-12-14T14:29:49;6.50;99.90
7196;DHT22;3639;51.308;5.624;2023-12-14T14:32:16;6.50;99.90
7196;DHT22;3639;51.308;5.624;2023-12-14T14:34:42;6.50;99.90
7196;DHT22;3639;51.308;5.624;2023-12-14T14:37:08;6.50;99.90
7196;DHT22;3639;51.308;5.624;2023-12-14T14:39:34;6.50;99.90
7196;DHT22;3639;51.308;5.624;2023-12-14T14:41:59;6.50;99.90
7196;DHT22;3639;51.308;5.624;2023-12-14T14:44:25;6.50;99.90
7196;DHT22;3639;51.308;5.624;2023-12-14T14:46:51;6.50;99.90
7196;DHT22;3639;51.308;5.624;2023-12-14T14:49:17;6.50;99.90
7196;DHT22;3639;51.308;5.624;2023-12-14T14:51:43;6.50;99.90
7196;DHT22;3639;51.308;5.624;2023-12-14T14:54:09;6.50;99.90
7196;DHT22;3639;51.308;5.624;2023-12-14T14:56:37;6.50;99.90
7196;DHT22;3639;51.308;5.624;2023-12-14T14:59:02;6.50;99.90
7196;DHT22;3639;51.308;5.624;2023-12-14T15:01:28;6.50;99.90
7196;DHT22;3639;51.308;5.624;2023-12-14T15:03:53;6.60;99.90
7196;DHT22;3639;51.308;5.624;2023-12-14T15:06:19;6.50;99.90
7196;DHT22;3639;51.308;5.624;2023-12-14T15:08:44;6.50;99.90
7196;DHT22;3639;51.308;5.624;2023-12-14T15:11:10;6.50;99.90
7196;DHT22;3639;51.308;5.624;2023-12-14T15:13:36;6.50;99.90
7196;DHT22;3639;51.308;5.624;2023-12-14T15:16:02;6.50;99.90
7196;DHT22;3639;51.308;5.624;2023-12-14T15:18:28;6.50;99.90
7196;DHT22;3639;51.308;5.624;2023-12-14T15:20:53;6.40;99.90
7196;DHT22;3639;51.308;5.624;2023-12-14T15:23:19;6.40;99.90
7196;DHT22;3639;51.308;5.624;2023-12-14T15:25:45;6.40;99.90
7196;DHT22;3639;51.308;5.624;2023-12-14T15:28:10;6.30;99.90
7196;DHT22;3639;51.308;5.624;2023-12-14T15:30:36;6.30;99.90
7196;DHT22;3639;51.308;5.624;2023-12-14T15:33:01;6.30;99.90
7196;DHT22;3639;51.308;5.624;2023-12-14T15:35:27;6.40;99.90
7196;DHT22;3639;51.308;5.624;2023-12-14T15:37:53;6.40;99.90
7196;DHT22;3639;51.308;5.624;2023-12-14T15:40:18;6.40;99.90
7196;DHT22;3639;51.308;5.624;2023-12-14T15:42:44;6.30;99.90
7196;DHT22;3639;51.308;5.624;2023-12-14T15:45:10;6.30;99.90
7196;DHT22;3639;51.308;5.624;2023-12-14T15:47:35;6.30;99.90
7196;DHT22;3639;51.308;5.624;2023-12-14T15:50:01;6.30;99.90
7196;DHT22;3639;51.308;5.624;2023-12-14T15:52:26;6.30;99.90
7196;DHT22;3639;51.308;5.624;2023-12-14T15:54:53;6.30;99.90
7196;DHT22;3639;51.308;5.624;2023-12-14T15:57:19;6.30;99.90
7196;DHT22;3639;51.308;5.624;2023-12-14T15:59:45;6.30;99.90
7196;DHT22;3639;51.308;5.624;2023-12-14T16:02:10;6.30;99.90
7196;DHT22;3639;51.308;5.624;2023-12-14T16:04:36;6.30;99.90
7196;DHT22;3639;51.308;5.624;2023-12-14T16:07:02;6.30;99.90
7196;DHT22;3639;51.308;5.624;2023-12-14T16:09:29;6.30;99.90
7196;DHT22;3639;51.308;5.624;2023-12-14T16:11:54;6.30;99.90
7196;DHT22;3639;51.308;5.624;2023-12-14T16:14:20;6.30;99.90